sensor_id;sensor_type;location;lat;lon;timestamp;pressure;altitude;pressure_sealevel;temperature;humidity
61436;BME280;47304;47.456;19.160;2023-02-28T00:00:25;101374.45;;;0.47;50.59
61436;BME280;47304;47.456;19.160;2023-02-28T00:02:52;101375.55;;;0.45;50.36
61436;BME280;47304;47.456;19.160;2023-02-28T00:05:22;101379.48;;;0.44;50.44
61436;BME280;47304;47.456;19.160;2023-02-28T00:07:50;101381.60;;;0.45;50.69
61436;BME280;47304;47.456;19.160;2023-02-28T00:10:29;101383.36;;;0.45;50.63
61436;BME280;47304;47.456;19.160;2023-02-28T00:13:01;101386.47;;;0.45;50.71
61436;BME280;47304;47.456;19.160;2023-02-28T00:15:28;101389.08;;;0.46;50.68
61436;BME280;47304;47.456;19.160;2023-02-28T00:17:55;101393.56;;;0.46;50.78
61436;BME280;47304;47.456;19.160;2023-02-28T00:20:21;101393.23;;;0.46;50.71
61436;BME280;47304;47.456;19.160;2023-02-28T00:22:50;101393.59;;;0.46;50.88
61436;BME280;47304;47.456;19.160;2023-02-28T00:25:22;101396.93;;;0.48;50.90
61436;BME280;47304;47.456;19.160;2023-02-28T00:27:49;101395.95;;;0.49;51.17
61436;BME280;47304;47.456;19.160;2023-02-28T00:30:19;101397.23;;;0.50;50.91
61436;BME280;47304;47.456;19.160;2023-02-28T00:32:46;101396.95;;;0.51;50.91
61436;BME280;47304;47.456;19.160;2023-02-28T00:35:13;101397.99;;;0.52;50.77
61436;BME280;47304;47.456;19.160;2023-02-28T00:37:39;101399.04;;;0.52;50.83
61436;BME280;47304;47.456;19.160;2023-02-28T00:40:07;101403.76;;;0.53;50.80
61436;BME280;47304;47.456;19.160;2023-02-28T00:42:35;101399.87;;;0.54;50.71
61436;BME280;47304;47.456;19.160;2023-02-28T00:45:03;101403.88;;;0.55;50.90
61436;BME280;47304;47.456;19.160;2023-02-28T00:47:30;101402.39;;;0.56;50.88
61436;BME280;47304;47.456;19.160;2023-02-28T00:49:57;101405.97;;;0.55;50.93
61436;BME280;47304;47.456;19.160;2023-02-28T00:52:23;101407.98;;;0.55;50.92
61436;BME280;47304;47.456;19.160;2023-02-28T00:54:50;101409.38;;;0.55;50.90
61436;BME280;47304;47.456;19.160;2023-02-28T00:57:16;101408.13;;;0.54;50.81
61436;BME280;47304;47.456;19.160;2023-02-28T00:59:43;101407.64;;;0.54;50.93
61436;BME280;47304;47.456;19.160;2023-02-28T01:02:09;101406.64;;;0.55;51.08
61436;BME280;47304;47.456;19.160;2023-02-28T01:04:36;101405.34;;;0.56;51.01
61436;BME280;47304;47.456;19.160;2023-02-28T01:07:03;101402.20;;;0.59;51.18
61436;BME280;47304;47.456;19.160;2023-02-28T01:09:29;101402.67;;;0.61;50.97
61436;BME280;47304;47.456;19.160;2023-02-28T01:11:56;101405.91;;;0.63;51.02
61436;BME280;47304;47.456;19.160;2023-02-28T01:14:23;101407.79;;;0.66;51.06
61436;BME280;47304;47.456;19.160;2023-02-28T01:16:49;101406.60;;;0.66;51.41
61436;BME280;47304;47.456;19.160;2023-02-28T01:19:16;101406.92;;;0.66;51.29
61436;BME280;47304;47.456;19.160;2023-02-28T01:21:42;101412.61;;;0.66;51.35
61436;BME280;47304;47.456;19.160;2023-02-28T01:24:09;101409.06;;;0.64;51.42
61436;BME280;47304;47.456;19.160;2023-02-28T01:26:35;101401.10;;;0.64;51.33
61436;BME280;47304;47.456;19.160;2023-02-28T01:29:02;101401.30;;;0.65;51.50
61436;BME280;47304;47.456;19.160;2023-02-28T01:31:29;101410.01;;;0.66;51.45
61436;BME280;47304;47.456;19.160;2023-02-28T01:33:56;101410.05;;;0.67;51.33
61436;BME280;47304;47.456;19.160;2023-02-28T01:36:24;101407.00;;;0.68;51.50
61436;BME280;47304;47.456;19.160;2023-02-28T01:38:51;101410.98;;;0.68;51.54
61436;BME280;47304;47.456;19.160;2023-02-28T01:41:27;101413.06;;;0.68;51.72
61436;BME280;47304;47.456;19.160;2023-02-28T01:46:23;101414.15;;;0.66;51.16
61436;BME280;47304;47.456;19.160;2023-02-28T01:49:11;101412.46;;;0.64;50.99
61436;BME280;47304;47.456;19.160;2023-02-28T01:51:42;101409.39;;;0.61;50.94
61436;BME280;47304;47.456;19.160;2023-02-28T01:54:14;101407.29;;;0.60;51.05
61436;BME280;47304;47.456;19.160;2023-02-28T01:56:54;101405.11;;;0.59;51.18
61436;BME280;47304;47.456;19.160;2023-02-28T01:59:29;101404.80;;;0.59;51.31
61436;BME280;47304;47.456;19.160;2023-02-28T02:02:00;101403.56;;;0.59;51.30
61436;BME280;47304;47.456;19.160;2023-02-28T02:04:34;101404.38;;;0.58;51.35
61436;BME280;47304;47.456;19.160;2023-02-28T02:07:03;101407.02;;;0.59;51.34
61436;BME280;47304;47.456;19.160;2023-02-28T02:09:30;101407.46;;;0.60;51.23
61436;BME280;47304;47.456;19.160;2023-02-28T02:11:57;101405.23;;;0.64;51.33
61436;BME280;47304;47.456;19.160;2023-02-28T02:14:43;101402.56;;;0.66;51.06
61436;BME280;47304;47.456;19.160;2023-02-28T02:17:38;101398.02;;;0.67;50.90
61436;BME280;47304;47.456;19.160;2023-02-28T02:23:33;101397.50;;;0.64;50.61
61436;BME280;47304;47.456;19.160;2023-02-28T02:36:39;101398.89;;;0.70;51.04
61436;BME280;47304;47.456;19.160;2023-02-28T02:39:19;101402.94;;;0.72;51.19
61436;BME280;47304;47.456;19.160;2023-02-28T02:41:53;101406.30;;;0.74;51.27
61436;BME280;47304;47.456;19.160;2023-02-28T02:44:27;101399.13;;;0.74;51.17
61436;BME280;47304;47.456;19.160;2023-02-28T02:46:59;101400.35;;;0.75;50.87
61436;BME280;47304;47.456;19.160;2023-02-28T02:49:31;101398.27;;;0.75;51.12
61436;BME280;47304;47.456;19.160;2023-02-28T02:52:03;101393.84;;;0.76;51.32
61436;BME280;47304;47.456;19.160;2023-02-28T02:54:34;101397.59;;;0.75;51.40
61436;BME280;47304;47.456;19.160;2023-02-28T02:57:06;101395.85;;;0.75;51.43
61436;BME280;47304;47.456;19.160;2023-02-28T02:59:36;101398.13;;;0.75;51.77
61436;BME280;47304;47.456;19.160;2023-02-28T03:02:07;101399.08;;;0.74;51.64
61436;BME280;47304;47.456;19.160;2023-02-28T03:04:39;101396.04;;;0.75;51.90
61436;BME280;47304;47.456;19.160;2023-02-28T03:07:06;101397.10;;;0.75;52.05
61436;BME280;47304;47.456;19.160;2023-02-28T03:09:34;101397.30;;;0.76;51.89
61436;BME280;47304;47.456;19.160;2023-02-28T03:12:00;101402.98;;;0.76;51.86
61436;BME280;47304;47.456;19.160;2023-02-28T03:14:40;101403.83;;;0.76;51.84
61436;BME280;47304;47.456;19.160;2023-02-28T03:17:19;101410.83;;;0.77;51.92
61436;BME280;47304;47.456;19.160;2023-02-28T03:25:20;101412.45;;;0.82;52.06
61436;BME280;47304;47.456;19.160;2023-02-28T03:28:00;101414.70;;;0.82;51.55
61436;BME280;47304;47.456;19.160;2023-02-28T03:30:45;101408.91;;;0.83;51.54
61436;BME280;47304;47.456;19.160;2023-02-28T03:33:38;101408.79;;;0.84;51.66
61436;BME280;47304;47.456;19.160;2023-02-28T03:36:17;101409.81;;;0.84;51.54
61436;BME280;47304;47.456;19.160;2023-02-28T03:41:20;101407.11;;;0.85;50.99
61436;BME280;47304;47.456;19.160;2023-02-28T03:43:58;101405.92;;;0.86;50.93
61436;BME280;47304;47.456;19.160;2023-02-28T03:46:28;101406.61;;;0.85;50.64
61436;BME280;47304;47.456;19.160;2023-02-28T03:49:02;101412.61;;;0.85;50.85
61436;BME280;47304;47.456;19.160;2023-02-28T03:51:31;101416.05;;;0.85;50.97
61436;BME280;47304;47.456;19.160;2023-02-28T03:54:03;101415.41;;;0.85;51.08
61436;BME280;47304;47.456;19.160;2023-02-28T03:56:36;101413.86;;;0.86;50.96
61436;BME280;47304;47.456;19.160;2023-02-28T03:59:17;101412.64;;;0.85;50.99
61436;BME280;47304;47.456;19.160;2023-02-28T04:01:47;101415.66;;;0.87;51.18
61436;BME280;47304;47.456;19.160;2023-02-28T04:04:16;101411.52;;;0.87;51.44
61436;BME280;47304;47.456;19.160;2023-02-28T04:06:43;101410.09;;;0.89;51.38
61436;BME280;47304;47.456;19.160;2023-02-28T04:09:12;101412.56;;;0.90;51.77
61436;BME280;47304;47.456;19.160;2023-02-28T04:11:45;101404.38;;;0.89;51.51
61436;BME280;47304;47.456;19.160;2023-02-28T04:14:15;101401.80;;;0.89;52.23
61436;BME280;47304;47.456;19.160;2023-02-28T04:16:42;101399.30;;;0.90;52.29
61436;BME280;47304;47.456;19.160;2023-02-28T04:19:11;101397.77;;;0.91;52.18
61436;BME280;47304;47.456;19.160;2023-02-28T04:21:49;101399.71;;;0.92;52.08
61436;BME280;47304;47.456;19.160;2023-02-28T04:24:24;101397.88;;;0.93;52.34
61436;BME280;47304;47.456;19.160;2023-02-28T04:26:52;101394.15;;;0.94;52.33
61436;BME280;47304;47.456;19.160;2023-02-28T04:29:23;101394.04;;;0.95;52.51
61436;BME280;47304;47.456;19.160;2023-02-28T04:31:49;101393.02;;;0.96;52.03
61436;BME280;47304;47.456;19.160;2023-02-28T04:34:16;101390.23;;;0.95;51.74
61436;BME280;47304;47.456;19.160;2023-02-28T04:36:43;101394.11;;;0.97;51.67
61436;BME280;47304;47.456;19.160;2023-02-28T04:39:09;101393.14;;;0.98;52.03
61436;BME280;47304;47.456;19.160;2023-02-28T04:41:36;101395.80;;;0.99;51.82
61436;BME280;47304;47.456;19.160;2023-02-28T04:44:02;101395.08;;;0.98;51.51
61436;BME280;47304;47.456;19.160;2023-02-28T04:46:29;101396.57;;;0.98;51.17
61436;BME280;47304;47.456;19.160;2023-02-28T04:48:55;101395.00;;;0.97;51.04
61436;BME280;47304;47.456;19.160;2023-02-28T04:51:22;101394.98;;;0.97;51.19
61436;BME280;47304;47.456;19.160;2023-02-28T04:53:48;101395.31;;;0.97;51.24
61436;BME280;47304;47.456;19.160;2023-02-28T04:56:16;101391.88;;;0.97;51.45
61436;BME280;47304;47.456;19.160;2023-02-28T04:58:44;101390.55;;;0.98;51.67
61436;BME280;47304;47.456;19.160;2023-02-28T05:01:28;101391.80;;;0.99;51.61
61436;BME280;47304;47.456;19.160;2023-02-28T05:03:57;101391.34;;;0.97;51.44
61436;BME280;47304;47.456;19.160;2023-02-28T05:06:25;101392.48;;;0.95;51.60
61436;BME280;47304;47.456;19.160;2023-02-28T05:08:52;101386.10;;;0.92;51.59
61436;BME280;47304;47.456;19.160;2023-02-28T05:11:23;101383.50;;;0.89;51.44
61436;BME280;47304;47.456;19.160;2023-02-28T05:13:50;101388.23;;;0.87;51.44
61436;BME280;47304;47.456;19.160;2023-02-28T05:16:18;101391.02;;;0.84;51.41
61436;BME280;47304;47.456;19.160;2023-02-28T05:18:45;101389.08;;;0.81;51.43
61436;BME280;47304;47.456;19.160;2023-02-28T05:21:27;101390.73;;;0.79;51.41
61436;BME280;47304;47.456;19.160;2023-02-28T05:23:54;101393.70;;;0.76;51.17
61436;BME280;47304;47.456;19.160;2023-02-28T05:26:22;101396.20;;;0.75;51.28
61436;BME280;47304;47.456;19.160;2023-02-28T05:28:49;101399.34;;;0.72;51.29
61436;BME280;47304;47.456;19.160;2023-02-28T05:31:15;101402.39;;;0.71;51.42
61436;BME280;47304;47.456;19.160;2023-02-28T05:33:42;101403.20;;;0.70;51.38
61436;BME280;47304;47.456;19.160;2023-02-28T05:36:09;101405.91;;;0.70;51.21
61436;BME280;47304;47.456;19.160;2023-02-28T05:38:36;101405.85;;;0.69;50.97
61436;BME280;47304;47.456;19.160;2023-02-28T05:41:06;101407.34;;;0.68;50.92
61436;BME280;47304;47.456;19.160;2023-02-28T05:43:32;101407.36;;;0.65;51.11
61436;BME280;47304;47.456;19.160;2023-02-28T05:45:59;101410.59;;;0.64;51.14
61436;BME280;47304;47.456;19.160;2023-02-28T05:48:28;101413.11;;;0.66;51.14
61436;BME280;47304;47.456;19.160;2023-02-28T05:50:57;101410.96;;;0.68;51.13
61436;BME280;47304;47.456;19.160;2023-02-28T05:53:24;101411.31;;;0.68;51.11
61436;BME280;47304;47.456;19.160;2023-02-28T05:55:50;101415.33;;;0.69;51.21
61436;BME280;47304;47.456;19.160;2023-02-28T05:58:17;101422.52;;;0.70;51.03
61436;BME280;47304;47.456;19.160;2023-02-28T06:00:43;101425.90;;;0.72;51.12
61436;BME280;47304;47.456;19.160;2023-02-28T06:03:10;101423.40;;;0.74;51.14
61436;BME280;47304;47.456;19.160;2023-02-28T06:05:36;101424.36;;;0.76;51.21
61436;BME280;47304;47.456;19.160;2023-02-28T06:08:03;101425.30;;;0.77;51.28
61436;BME280;47304;47.456;19.160;2023-02-28T06:10:29;101427.37;;;0.77;51.02
61436;BME280;47304;47.456;19.160;2023-02-28T06:12:59;101428.33;;;0.79;51.07
61436;BME280;47304;47.456;19.160;2023-02-28T06:15:26;101433.29;;;0.81;50.96
61436;BME280;47304;47.456;19.160;2023-02-28T06:17:52;101432.35;;;0.83;50.76
61436;BME280;47304;47.456;19.160;2023-02-28T06:20:19;101431.24;;;0.85;50.63
61436;BME280;47304;47.456;19.160;2023-02-28T06:22:45;101431.27;;;0.88;50.82
61436;BME280;47304;47.456;19.160;2023-02-28T06:25:12;101432.84;;;0.95;50.67
61436;BME280;47304;47.456;19.160;2023-02-28T06:27:39;101437.27;;;1.03;50.65
61436;BME280;47304;47.456;19.160;2023-02-28T06:30:06;101437.89;;;1.12;50.55
61436;BME280;47304;47.456;19.160;2023-02-28T06:32:32;101446.91;;;1.18;50.29
61436;BME280;47304;47.456;19.160;2023-02-28T06:34:59;101447.60;;;1.25;49.85
61436;BME280;47304;47.456;19.160;2023-02-28T06:37:26;101447.73;;;1.31;49.71
61436;BME280;47304;47.456;19.160;2023-02-28T06:39:54;101451.90;;;1.34;49.78
61436;BME280;47304;47.456;19.160;2023-02-28T06:42:22;101454.75;;;1.39;49.67
61436;BME280;47304;47.456;19.160;2023-02-28T06:44:48;101451.24;;;1.44;49.55
61436;BME280;47304;47.456;19.160;2023-02-28T06:47:15;101451.20;;;1.47;49.20
61436;BME280;47304;47.456;19.160;2023-02-28T06:49:42;101453.75;;;1.50;49.28
61436;BME280;47304;47.456;19.160;2023-02-28T06:52:08;101452.43;;;1.54;49.07
61436;BME280;47304;47.456;19.160;2023-02-28T06:54:36;101448.15;;;1.61;49.08
61436;BME280;47304;47.456;19.160;2023-02-28T06:57:03;101445.64;;;1.73;49.21
61436;BME280;47304;47.456;19.160;2023-02-28T06:59:29;101449.08;;;1.86;48.90
61436;BME280;47304;47.456;19.160;2023-02-28T07:01:56;101452.42;;;1.97;48.49
61436;BME280;47304;47.456;19.160;2023-02-28T07:04:23;101449.66;;;2.10;48.37
61436;BME280;47304;47.456;19.160;2023-02-28T07:06:49;101456.20;;;2.23;48.25
61436;BME280;47304;47.456;19.160;2023-02-28T07:09:16;101457.05;;;2.37;47.83
61436;BME280;47304;47.456;19.160;2023-02-28T07:11:42;101460.44;;;2.43;47.32
61436;BME280;47304;47.456;19.160;2023-02-28T07:14:09;101459.88;;;2.45;47.17
61436;BME280;47304;47.456;19.160;2023-02-28T07:16:35;101460.11;;;2.46;46.89
61436;BME280;47304;47.456;19.160;2023-02-28T07:19:02;101463.96;;;2.47;47.00
61436;BME280;47304;47.456;19.160;2023-02-28T07:21:29;101466.63;;;2.52;46.83
61436;BME280;47304;47.456;19.160;2023-02-28T07:23:56;101470.52;;;2.61;46.87
61436;BME280;47304;47.456;19.160;2023-02-28T07:26:22;101467.36;;;2.74;46.75
61436;BME280;47304;47.456;19.160;2023-02-28T07:28:49;101470.92;;;2.87;46.53
61436;BME280;47304;47.456;19.160;2023-02-28T07:31:16;101472.15;;;2.98;46.17
61436;BME280;47304;47.456;19.160;2023-02-28T07:33:43;101471.02;;;3.11;46.19
61436;BME280;47304;47.456;19.160;2023-02-28T07:36:14;101473.91;;;3.25;45.93
61436;BME280;47304;47.456;19.160;2023-02-28T07:38:46;101474.23;;;3.35;45.62
61436;BME280;47304;47.456;19.160;2023-02-28T07:41:19;101475.04;;;3.45;45.45
61436;BME280;47304;47.456;19.160;2023-02-28T07:43:45;101476.79;;;3.53;44.93
61436;BME280;47304;47.456;19.160;2023-02-28T07:46:14;101479.47;;;3.58;44.74
61436;BME280;47304;47.456;19.160;2023-02-28T07:48:41;101480.05;;;3.64;44.71
61436;BME280;47304;47.456;19.160;2023-02-28T07:51:08;101476.17;;;3.78;44.49
61436;BME280;47304;47.456;19.160;2023-02-28T07:53:35;101479.13;;;3.86;43.94
61436;BME280;47304;47.456;19.160;2023-02-28T07:56:02;101474.92;;;3.97;43.94
61436;BME280;47304;47.456;19.160;2023-02-28T07:58:30;101477.27;;;4.07;43.56
61436;BME280;47304;47.456;19.160;2023-02-28T08:00:56;101472.66;;;4.21;43.57
61436;BME280;47304;47.456;19.160;2023-02-28T08:03:24;101472.92;;;4.43;43.71
61436;BME280;47304;47.456;19.160;2023-02-28T08:05:50;101472.28;;;4.65;43.39
61436;BME280;47304;47.456;19.160;2023-02-28T08:08:17;101471.67;;;4.85;42.78
61436;BME280;47304;47.456;19.160;2023-02-28T08:10:43;101471.57;;;5.04;42.48
61436;BME280;47304;47.456;19.160;2023-02-28T08:13:10;101471.13;;;5.24;42.49
61436;BME280;47304;47.456;19.160;2023-02-28T08:15:36;101471.21;;;5.40;41.86
61436;BME280;47304;47.456;19.160;2023-02-28T08:18:03;101470.42;;;5.51;41.24
61436;BME280;47304;47.456;19.160;2023-02-28T08:20:29;101473.52;;;5.69;40.96
61436;BME280;47304;47.456;19.160;2023-02-28T08:22:56;101470.19;;;5.77;39.88
61436;BME280;47304;47.456;19.160;2023-02-28T08:25:23;101476.56;;;5.86;40.12
61436;BME280;47304;47.456;19.160;2023-02-28T08:27:52;101467.55;;;6.00;40.23
61436;BME280;47304;47.456;19.160;2023-02-28T08:30:19;101467.04;;;6.20;40.10
61436;BME280;47304;47.456;19.160;2023-02-28T08:32:46;101466.30;;;6.39;39.56
61436;BME280;47304;47.456;19.160;2023-02-28T08:35:13;101469.79;;;6.60;39.70
61436;BME280;47304;47.456;19.160;2023-02-28T08:37:39;101470.52;;;6.82;38.97
61436;BME280;47304;47.456;19.160;2023-02-28T08:40:06;101467.94;;;7.00;38.81
61436;BME280;47304;47.456;19.160;2023-02-28T08:42:33;101468.98;;;7.11;38.30
61436;BME280;47304;47.456;19.160;2023-02-28T08:45:00;101467.75;;;7.28;37.83
61436;BME280;47304;47.456;19.160;2023-02-28T08:47:27;101463.27;;;7.41;37.57
61436;BME280;47304;47.456;19.160;2023-02-28T08:49:53;101466.70;;;7.57;38.08
61436;BME280;47304;47.456;19.160;2023-02-28T08:52:20;101461.05;;;7.79;37.70
61436;BME280;47304;47.456;19.160;2023-02-28T08:54:47;101460.31;;;8.03;37.32
61436;BME280;47304;47.456;19.160;2023-02-28T08:57:13;101459.39;;;8.27;36.89
61436;BME280;47304;47.456;19.160;2023-02-28T08:59:40;101451.69;;;8.39;36.50
61436;BME280;47304;47.456;19.160;2023-02-28T09:02:08;101452.37;;;8.52;36.43
61436;BME280;47304;47.456;19.160;2023-02-28T09:04:35;101454.70;;;8.54;35.56
61436;BME280;47304;47.456;19.160;2023-02-28T09:07:02;101453.71;;;8.49;35.54
61436;BME280;47304;47.456;19.160;2023-02-28T09:09:28;101454.43;;;8.44;35.58
61436;BME280;47304;47.456;19.160;2023-02-28T09:11:56;101459.92;;;8.34;36.05
61436;BME280;47304;47.456;19.160;2023-02-28T09:14:23;101463.08;;;8.21;36.35
61436;BME280;47304;47.456;19.160;2023-02-28T09:16:49;101463.34;;;8.05;36.46
61436;BME280;47304;47.456;19.160;2023-02-28T09:19:16;101462.62;;;7.85;36.70
61436;BME280;47304;47.456;19.160;2023-02-28T09:21:43;101469.63;;;7.62;36.98
61436;BME280;47304;47.456;19.160;2023-02-28T09:24:09;101467.15;;;7.43;37.40
61436;BME280;47304;47.456;19.160;2023-02-28T09:26:37;101474.04;;;7.28;37.39
61436;BME280;47304;47.456;19.160;2023-02-28T09:29:08;101472.67;;;7.01;36.96
61436;BME280;47304;47.456;19.160;2023-02-28T09:31:35;101466.91;;;6.95;38.04
61436;BME280;47304;47.456;19.160;2023-02-28T09:34:03;101469.86;;;6.95;38.34
61436;BME280;47304;47.456;19.160;2023-02-28T09:36:30;101466.91;;;7.01;38.51
61436;BME280;47304;47.456;19.160;2023-02-28T09:39:10;101472.11;;;7.11;38.13
61436;BME280;47304;47.456;19.160;2023-02-28T09:41:42;101473.33;;;7.23;37.86
61436;BME280;47304;47.456;19.160;2023-02-28T09:44:15;101471.83;;;7.36;37.60
61436;BME280;47304;47.456;19.160;2023-02-28T09:46:47;101467.93;;;7.52;37.25
61436;BME280;47304;47.456;19.160;2023-02-28T09:49:18;101465.70;;;7.59;37.12
61436;BME280;47304;47.456;19.160;2023-02-28T09:51:59;101466.86;;;7.63;36.49
61436;BME280;47304;47.456;19.160;2023-02-28T09:54:29;101464.76;;;7.87;36.65
61436;BME280;47304;47.456;19.160;2023-02-28T09:57:06;101458.56;;;8.22;36.83
61436;BME280;47304;47.456;19.160;2023-02-28T09:59:51;101457.20;;;8.50;36.25
61436;BME280;47304;47.456;19.160;2023-02-28T10:05:23;101454.30;;;9.27;35.25
61436;BME280;47304;47.456;19.160;2023-02-28T10:08:08;101447.77;;;9.64;35.51
61436;BME280;47304;47.456;19.160;2023-02-28T10:13:06;101437.55;;;10.88;33.39
61436;BME280;47304;47.456;19.160;2023-02-28T10:15:33;101435.55;;;11.18;31.79
61436;BME280;47304;47.456;19.160;2023-02-28T10:18:04;101430.66;;;11.47;32.62
61436;BME280;47304;47.456;19.160;2023-02-28T10:20:53;101433.66;;;11.91;32.42
61436;BME280;47304;47.456;19.160;2023-02-28T10:23:25;101430.50;;;12.24;31.62
61436;BME280;47304;47.456;19.160;2023-02-28T10:26:03;101427.75;;;12.50;31.01
61436;BME280;47304;47.456;19.160;2023-02-28T10:28:34;101428.88;;;12.58;30.99
61436;BME280;47304;47.456;19.160;2023-02-28T10:31:01;101426.46;;;12.89;31.09
61436;BME280;47304;47.456;19.160;2023-02-28T10:33:33;101424.16;;;13.14;30.31
61436;BME280;47304;47.456;19.160;2023-02-28T10:36:02;101424.34;;;13.15;29.94
61436;BME280;47304;47.456;19.160;2023-02-28T10:38:38;101421.52;;;13.16;29.89
61436;BME280;47304;47.456;19.160;2023-02-28T10:43:44;101415.61;;;13.30;28.85
61436;BME280;47304;47.456;19.160;2023-02-28T10:46:12;101413.13;;;13.23;29.46
61436;BME280;47304;47.456;19.160;2023-02-28T10:49:00;101403.82;;;13.61;29.40
61436;BME280;47304;47.456;19.160;2023-02-28T10:51:34;101404.23;;;13.85;29.51
61436;BME280;47304;47.456;19.160;2023-02-28T10:54:02;101399.61;;;13.70;29.29
61436;BME280;47304;47.456;19.160;2023-02-28T10:56:29;101401.08;;;13.41;29.72
61436;BME280;47304;47.456;19.160;2023-02-28T10:58:59;101400.39;;;13.11;29.90
61436;BME280;47304;47.456;19.160;2023-02-28T11:03:56;101400.92;;;12.58;30.71
61436;BME280;47304;47.456;19.160;2023-02-28T11:06:28;101401.89;;;12.46;31.16
61436;BME280;47304;47.456;19.160;2023-02-28T11:08:59;101404.13;;;12.63;31.12
61436;BME280;47304;47.456;19.160;2023-02-28T11:11:28;101399.51;;;13.12;30.94
61436;BME280;47304;47.456;19.160;2023-02-28T11:14:04;101399.87;;;13.41;30.26
61436;BME280;47304;47.456;19.160;2023-02-28T11:16:37;101397.20;;;13.41;30.19
61436;BME280;47304;47.456;19.160;2023-02-28T11:19:06;101396.09;;;13.67;29.88
61436;BME280;47304;47.456;19.160;2023-02-28T11:21:55;101392.59;;;13.75;29.39
61436;BME280;47304;47.456;19.160;2023-02-28T11:24:30;101392.66;;;13.46;29.66
61436;BME280;47304;47.456;19.160;2023-02-28T11:26:59;101393.66;;;13.01;30.27
61436;BME280;47304;47.456;19.160;2023-02-28T11:29:33;101392.86;;;12.61;30.86
61436;BME280;47304;47.456;19.160;2023-02-28T11:34:30;101390.17;;;11.66;31.54
61436;BME280;47304;47.456;19.160;2023-02-28T11:36:59;101392.01;;;11.28;31.93
61436;BME280;47304;47.456;19.160;2023-02-28T11:39:26;101391.88;;;11.05;32.39
61436;BME280;47304;47.456;19.160;2023-02-28T11:44:57;101387.42;;;11.55;32.95
61436;BME280;47304;47.456;19.160;2023-02-28T11:47:36;101382.17;;;13.01;31.84
61436;BME280;47304;47.456;19.160;2023-02-28T11:52:54;101369.57;;;15.72;29.02
61436;BME280;47304;47.456;19.160;2023-02-28T11:55:31;101365.02;;;16.62;27.72
61436;BME280;47304;47.456;19.160;2023-02-28T11:58:26;101362.23;;;16.93;27.16
61436;BME280;47304;47.456;19.160;2023-02-28T12:06:51;101358.14;;;16.20;27.22
61436;BME280;47304;47.456;19.160;2023-02-28T12:09:44;101363.21;;;16.03;27.34
61436;BME280;47304;47.456;19.160;2023-02-28T12:12:19;101362.02;;;15.63;27.68
61436;BME280;47304;47.456;19.160;2023-02-28T12:15:02;101359.91;;;15.26;27.88
61436;BME280;47304;47.456;19.160;2023-02-28T12:17:41;101362.64;;;14.99;27.79
61436;BME280;47304;47.456;19.160;2023-02-28T12:28:47;101342.77;;;14.56;29.07
61436;BME280;47304;47.456;19.160;2023-02-28T12:31:23;101342.44;;;14.48;28.94
61436;BME280;47304;47.456;19.160;2023-02-28T12:33:53;101342.09;;;14.42;29.03
61436;BME280;47304;47.456;19.160;2023-02-28T12:36:22;101335.93;;;14.26;29.08
61436;BME280;47304;47.456;19.160;2023-02-28T12:38:53;101337.88;;;14.05;29.43
61436;BME280;47304;47.456;19.160;2023-02-28T12:44:17;101329.20;;;13.82;29.23
61436;BME280;47304;47.456;19.160;2023-02-28T12:46:49;101335.63;;;13.42;29.64
61436;BME280;47304;47.456;19.160;2023-02-28T12:51:52;101332.36;;;13.19;30.11
61436;BME280;47304;47.456;19.160;2023-02-28T12:54:30;101335.48;;;13.12;30.59
61436;BME280;47304;47.456;19.160;2023-02-28T12:57:18;101333.30;;;12.94;30.39
61436;BME280;47304;47.456;19.160;2023-02-28T12:59:52;101330.64;;;12.92;30.63
61436;BME280;47304;47.456;19.160;2023-02-28T13:10:54;101319.94;;;12.66;30.87
61436;BME280;47304;47.456;19.160;2023-02-28T13:13:26;101322.67;;;12.51;31.21
61436;BME280;47304;47.456;19.160;2023-02-28T13:16:08;101321.44;;;12.27;31.30
61436;BME280;47304;47.456;19.160;2023-02-28T13:18:39;101321.69;;;11.95;31.79
61436;BME280;47304;47.456;19.160;2023-02-28T13:21:21;101315.21;;;11.64;31.88
61436;BME280;47304;47.456;19.160;2023-02-28T13:26:18;101311.81;;;10.98;32.85
61436;BME280;47304;47.456;19.160;2023-02-28T13:31:17;101315.85;;;10.59;33.55
61436;BME280;47304;47.456;19.160;2023-02-28T13:38:43;101316.25;;;10.18;35.17
61436;BME280;47304;47.456;19.160;2023-02-28T13:41:45;101310.66;;;10.08;35.61
61436;BME280;47304;47.456;19.160;2023-02-28T13:44:23;101308.02;;;9.96;35.67
61436;BME280;47304;47.456;19.160;2023-02-28T13:51:51;101293.23;;;9.71;36.13
61436;BME280;47304;47.456;19.160;2023-02-28T14:01:04;101293.95;;;9.44;36.46
61436;BME280;47304;47.456;19.160;2023-02-28T14:06:32;101292.31;;;9.13;36.81
61436;BME280;47304;47.456;19.160;2023-02-28T14:09:00;101289.97;;;9.01;36.89
61436;BME280;47304;47.456;19.160;2023-02-28T14:11:38;101288.91;;;8.93;37.13
61436;BME280;47304;47.456;19.160;2023-02-28T14:14:07;101294.59;;;8.80;37.80
61436;BME280;47304;47.456;19.160;2023-02-28T14:16:47;101294.41;;;8.72;38.17
61436;BME280;47304;47.456;19.160;2023-02-28T14:19:19;101295.61;;;8.63;38.18
61436;BME280;47304;47.456;19.160;2023-02-28T14:27:28;101290.20;;;8.48;38.60
61436;BME280;47304;47.456;19.160;2023-02-28T14:30:03;101283.63;;;8.44;38.40
61436;BME280;47304;47.456;19.160;2023-02-28T14:35:44;101281.64;;;8.33;39.16
61436;BME280;47304;47.456;19.160;2023-02-28T14:38:22;101278.83;;;8.24;39.26
61436;BME280;47304;47.456;19.160;2023-02-28T14:40:52;101280.34;;;8.14;39.73
61436;BME280;47304;47.456;19.160;2023-02-28T14:43:26;101288.45;;;8.04;39.86
61436;BME280;47304;47.456;19.160;2023-02-28T14:45:56;101284.25;;;7.96;40.11
61436;BME280;47304;47.456;19.160;2023-02-28T14:48:23;101285.14;;;7.90;40.08